Time;durP1;ratioP1;P1;durP2;ratioP2;P2;SDS_P1;SDS_P2;PMS_P1;PMS_P2;Temp;Humidity;BMP_temperature;BMP_pressure;BME280_temperature;BME280_humidity;BME280_pressure;Samples;Min_cycle;Max_cycle;Signal;HPM_P1;HPM_P2
2022/07/04 00:01:20;;;;;;;1999.90;999.90;;;10.90;99.90;;;;;;5067517;28;20083;-77
2022/07/04 00:03:46;;;;;;;1999.90;999.90;;;10.90;99.90;;;;;;5074994;28;20470;-78
2022/07/04 00:06:11;;;;;;;1999.90;999.90;;;10.90;99.90;;;;;;5087469;28;20051;-77
2022/07/04 00:08:37;;;;;;;1999.90;999.90;;;10.80;99.90;;;;;;5077232;28;20035;-77
2022/07/04 00:11:02;;;;;;;1999.90;999.90;;;10.90;99.90;;;;;;5076046;28;20046;-77
2022/07/04 00:13:28;;;;;;;1999.90;999.90;;;10.80;99.90;;;;;;5076868;28;20104;-77
2022/07/04 00:15:54;;;;;;;1999.90;999.90;;;10.80;99.90;;;;;;5057201;28;20524;-77
2022/07/04 00:18:20;;;;;;;1999.90;999.90;;;10.80;99.90;;;;;;5071730;28;20101;-77
2022/07/04 00:20:45;;;;;;;1999.90;999.90;;;10.80;99.90;;;;;;5089543;28;20036;-77
2022/07/04 00:23:11;;;;;;;1999.90;999.90;;;10.80;99.90;;;;;;5110737;27;20039;-77
2022/07/04 00:25:37;;;;;;;1999.90;999.90;;;10.80;99.90;;;;;;5062259;28;20040;-78
2022/07/04 00:28:02;;;;;;;1999.90;999.90;;;10.70;99.90;;;;;;5048772;28;20402;-78
2022/07/04 00:30:28;;;;;;;1999.90;999.90;;;10.80;99.90;;;;;;5065750;28;20087;-77
2022/07/04 00:32:54;;;;;;;1999.90;999.90;;;10.70;99.90;;;;;;5059919;28;20052;-78
2022/07/04 00:35:22;;;;;;;1999.90;999.90;;;10.70;99.90;;;;;;5100055;28;20293;-78
2022/07/04 00:37:47;;;;;;;1999.90;999.90;;;10.80;99.90;;;;;;5101320;28;20051;-77
2022/07/04 00:40:13;;;;;;;1999.90;999.90;;;10.70;99.90;;;;;;5056502;28;20044;-77
2022/07/04 00:42:39;;;;;;;1999.90;999.90;;;10.70;99.90;;;;;;5070643;28;20043;-77
2022/07/04 00:45:05;;;;;;;1999.90;999.90;;;10.70;99.90;;;;;;5106686;28;20052;-78
2022/07/04 00:47:32;;;;;;;1999.90;999.90;;;10.60;99.90;;;;;;5078126;28;20472;-78
2022/07/04 00:49:58;;;;;;;1999.90;999.90;;;10.60;99.90;;;;;;5070747;28;20035;-78
2022/07/04 00:52:23;;;;;;;1999.90;999.90;;;10.50;99.90;;;;;;5051600;28;20043;-78
2022/07/04 00:54:49;;;;;;;1999.90;999.90;;;10.50;99.90;;;;;;5073768;28;20047;-77
2022/07/04 00:57:15;;;;;;;1999.90;999.90;;;10.40;99.90;;;;;;5063735;28;20055;-77
2022/07/04 00:59:41;;;;;;;1999.90;999.90;;;10.40;99.90;;;;;;5071147;28;20036;-77
2022/07/04 01:02:07;;;;;;;1999.90;999.90;;;10.40;99.90;;;;;;5079643;28;20043;-77
2022/07/04 01:04:34;;;;;;;1999.90;999.90;;;10.40;99.90;;;;;;5071435;28;20131;-77
2022/07/04 01:07:00;;;;;;;1999.90;999.90;;;10.30;99.90;;;;;;5053111;28;20047;-78
2022/07/04 01:09:25;;;;;;;1999.90;999.90;;;10.30;99.90;;;;;;5071324;28;20043;-77
2022/07/04 01:11:51;;;;;;;1999.90;999.90;;;10.30;99.90;;;;;;5070019;28;20036;-77
2022/07/04 01:14:17;;;;;;;1999.90;999.90;;;10.30;99.90;;;;;;5066299;28;20135;-78
2022/07/04 01:16:43;;;;;;;1999.90;999.90;;;10.30;99.90;;;;;;5051928;28;20124;-78
2022/07/04 01:19:08;;;;;;;1999.90;999.90;;;10.30;99.90;;;;;;5074033;28;20048;-78
2022/07/04 01:21:34;;;;;;;1999.90;999.90;;;10.30;99.90;;;;;;5068063;28;20510;-78
2022/07/04 01:24:01;;;;;;;1999.90;999.90;;;10.40;99.90;;;;;;5090602;28;20059;-78
2022/07/04 01:26:28;;;;;;;1999.90;999.90;;;10.40;99.90;;;;;;5056545;28;20132;-78
2022/07/04 01:28:54;;;;;;;1999.90;999.90;;;10.40;99.90;;;;;;5069617;28;20043;-78
2022/07/04 01:31:19;;;;;;;1999.90;999.90;;;10.40;99.90;;;;;;5071749;28;20150;-78
2022/07/04 01:33:45;;;;;;;1999.90;999.90;;;10.40;99.90;;;;;;5075793;28;20028;-78
2022/07/04 01:36:10;;;;;;;1999.90;999.90;;;10.50;99.90;;;;;;5071302;28;20145;-78
2022/07/04 01:38:36;;;;;;;1999.90;999.90;;;10.50;99.90;;;;;;5091230;28;20054;-78
2022/07/04 01:41:02;;;;;;;1999.90;999.90;;;10.50;99.90;;;;;;5080448;28;20138;-78
2022/07/04 01:43:27;;;;;;;1999.90;999.90;;;10.60;99.90;;;;;;5058857;28;20465;-78
2022/07/04 01:45:53;;;;;;;1999.90;999.90;;;10.60;99.90;;;;;;5067298;28;20051;-78
2022/07/04 01:48:19;;;;;;;1999.90;999.90;;;10.60;99.90;;;;;;5075747;28;20062;-78
2022/07/04 01:50:44;;;;;;;1999.90;999.90;;;10.50;99.90;;;;;;5067273;28;20047;-77
2022/07/04 01:53:10;;;;;;;1999.90;999.90;;;10.50;99.90;;;;;;5072616;28;20036;-77
2022/07/04 01:55:36;;;;;;;1999.90;999.90;;;10.50;99.90;;;;;;5055506;28;20127;-78
2022/07/04 01:58:01;;;;;;;1999.90;999.90;;;10.50;99.90;;;;;;5066485;28;20031;-78
2022/07/04 02:03:12;;;;;;;1999.90;999.90;;;10.40;99.90;;;;;;5072909;28;20047;-78
2022/07/04 02:05:38;;;;;;;1999.90;999.90;;;10.40;99.90;;;;;;5096053;28;20036;-78
2022/07/04 02:08:05;;;;;;;1999.90;999.90;;;10.40;99.90;;;;;;5083145;28;20051;-78
2022/07/04 02:10:31;;;;;;;1999.90;999.90;;;10.30;99.90;;;;;;5061905;28;20042;-78
2022/07/04 02:13:03;;;;;;;1999.90;999.90;;;10.30;99.90;;;;;;5086658;28;20118;-78
2022/07/04 02:15:35;;;;;;;1999.90;999.90;;;10.40;99.90;;;;;;5079767;28;20052;-78
2022/07/04 02:18:06;;;;;;;1999.90;999.90;;;10.30;99.90;;;;;;5071390;28;20363;-78
2022/07/04 02:20:32;;;;;;;1999.90;999.90;;;10.30;99.90;;;;;;5076100;28;20456;-78
2022/07/04 02:22:58;;;;;;;1999.90;999.90;;;10.40;99.90;;;;;;5089580;28;20040;-78
2022/07/04 02:25:24;;;;;;;1999.90;999.90;;;10.40;99.90;;;;;;5099974;28;20035;-78
2022/07/04 02:27:50;;;;;;;1999.90;999.90;;;10.40;99.90;;;;;;5063359;28;20571;-78
2022/07/04 02:30:16;;;;;;;1999.90;999.90;;;10.30;99.90;;;;;;5073495;28;20051;-78
2022/07/04 02:32:41;;;;;;;1999.90;999.90;;;10.40;99.90;;;;;;5091765;28;20044;-78
2022/07/04 02:35:08;;;;;;;1999.90;999.90;;;10.50;99.90;;;;;;5072949;28;20048;-78
2022/07/04 02:37:33;;;;;;;1999.90;999.90;;;10.60;99.90;;;;;;5073892;28;20054;-78
2022/07/04 02:39:59;;;;;;;1999.90;999.90;;;10.60;99.90;;;;;;5054413;28;20162;-78
2022/07/04 02:42:30;;;;;;;1999.90;999.90;;;10.60;99.90;;;;;;5069463;28;20036;-78
2022/07/04 02:44:56;;;;;;;1999.90;999.90;;;10.70;99.90;;;;;;5110638;27;20059;-78
2022/07/04 02:47:21;;;;;;;1999.90;999.90;;;10.60;99.90;;;;;;5083028;28;20040;-78
2022/07/04 02:49:47;;;;;;;1999.90;999.90;;;10.60;99.90;;;;;;5070209;28;20036;-78
2022/07/04 02:52:13;;;;;;;1999.90;999.90;;;10.60;99.90;;;;;;5065909;28;20032;-78
2022/07/04 02:54:38;;;;;;;1999.90;999.90;;;10.60;99.90;;;;;;5054205;28;20095;-78
2022/07/04 02:57:04;;;;;;;1999.90;999.90;;;10.70;99.90;;;;;;5067971;28;20075;-78
2022/07/04 02:59:30;;;;;;;1999.90;999.90;;;10.70;99.90;;;;;;5054339;28;20085;-78
2022/07/04 03:01:55;;;;;;;1999.90;999.90;;;10.70;99.90;;;;;;5054362;28;20040;-78
2022/07/04 03:04:21;;;;;;;1999.90;999.90;;;10.70;99.90;;;;;;5069875;28;20038;-79
2022/07/04 03:06:47;;;;;;;1999.90;999.90;;;10.80;99.90;;;;;;5060332;28;20044;-79
2022/07/04 03:09:12;;;;;;;1999.90;999.90;;;10.80;99.90;;;;;;5086009;28;20047;-79
2022/07/04 03:11:38;;;;;;;1999.90;999.90;;;10.80;99.90;;;;;;5058994;28;20035;-78
2022/07/04 03:14:03;;;;;;;1999.90;999.90;;;10.90;99.90;;;;;;5051906;28;20481;-78
2022/07/04 03:16:29;;;;;;;1999.90;999.90;;;11.00;99.90;;;;;;5086105;28;20112;-78
2022/07/04 03:18:55;;;;;;;1999.90;999.90;;;11.00;99.90;;;;;;5063045;28;20633;-78
2022/07/04 03:21:20;;;;;;;1999.90;999.90;;;11.10;99.90;;;;;;5067321;28;20065;-78
2022/07/04 03:23:58;;;;;;;1999.90;999.90;;;11.10;99.90;;;;;;5060508;28;20430;-77
2022/07/04 03:26:32;;;;;;;1999.90;999.90;;;11.10;99.90;;;;;;5102857;27;20445;-77
2022/07/04 03:28:58;;;;;;;1999.90;999.90;;;11.20;99.90;;;;;;5071168;28;20481;-78
2022/07/04 03:31:25;;;;;;;1999.90;999.90;;;11.20;99.90;;;;;;5080454;28;20054;-78
2022/07/04 03:33:51;;;;;;;1999.90;999.90;;;11.20;99.90;;;;;;5056213;28;20117;-78
2022/07/04 03:36:17;;;;;;;1999.90;999.90;;;11.20;99.90;;;;;;5054679;28;20044;-79
2022/07/04 03:38:43;;;;;;;1999.90;999.90;;;11.20;99.90;;;;;;5068897;28;20562;-79
2022/07/04 03:41:09;;;;;;;1999.90;999.90;;;11.20;99.90;;;;;;5104740;27;20052;-78
2022/07/04 03:43:34;;;;;;;1999.90;999.90;;;11.20;99.90;;;;;;5068565;28;20036;-79
2022/07/04 03:46:00;;;;;;;1999.90;999.90;;;11.20;99.90;;;;;;5088782;28;20121;-79
2022/07/04 03:48:26;;;;;;;1999.90;999.90;;;11.20;99.90;;;;;;5059394;28;20127;-78
2022/07/04 03:50:51;;;;;;;1999.90;999.90;;;11.10;99.90;;;;;;5071469;28;20122;-78
2022/07/04 03:53:19;;;;;;;1999.90;999.90;;;11.10;99.90;;;;;;5078115;28;20154;-78
2022/07/04 03:55:45;;;;;;;1999.90;999.90;;;11.10;99.90;;;;;;5070546;28;20391;-78
2022/07/04 03:58:11;;;;;;;1999.90;999.90;;;11.20;99.90;;;;;;5045195;28;20074;-78
2022/07/04 04:00:36;;;;;;;1999.90;999.90;;;11.20;99.90;;;;;;5066869;28;20039;-78
2022/07/04 04:03:02;;;;;;;1999.90;999.90;;;11.30;99.90;;;;;;5065705;28;20708;-78
2022/07/04 04:05:30;;;;;;;1999.90;999.90;;;11.30;99.90;;;;;;5069851;28;20456;-78
2022/07/04 04:08:00;;;;;;;1999.90;999.90;;;11.40;99.90;;;;;;5085269;28;20024;-77
2022/07/04 04:10:28;;;;;;;1999.90;999.90;;;11.40;99.90;;;;;;5103477;28;20032;-78
2022/07/04 04:12:54;;;;;;;1999.90;999.90;;;11.50;99.90;;;;;;5054794;28;20114;-78
2022/07/04 04:15:20;;;;;;;1999.90;999.90;;;11.60;99.90;;;;;;5071509;28;20128;-78
2022/07/04 04:17:46;;;;;;;1999.90;999.90;;;11.60;99.90;;;;;;5077898;28;20044;-78
2022/07/04 04:20:12;;;;;;;1999.90;999.90;;;11.60;99.90;;;;;;5060369;28;20143;-79
2022/07/04 04:22:37;;;;;;;1999.90;999.90;;;11.70;99.90;;;;;;5085105;28;20097;-79
2022/07/04 04:25:03;;;;;;;1999.90;999.90;;;11.80;99.90;;;;;;5077018;28;20053;-78
2022/07/04 04:27:29;;;;;;;1999.90;999.90;;;11.80;99.90;;;;;;5088409;28;20050;-78
2022/07/04 04:29:55;;;;;;;1999.90;999.90;;;11.90;99.90;;;;;;5053944;28;20035;-78
2022/07/04 04:32:21;;;;;;;1999.90;999.90;;;12.10;99.90;;;;;;5083731;28;20040;-78
2022/07/04 04:34:47;;;;;;;1999.90;999.90;;;12.20;99.90;;;;;;5059987;28;20401;-78
2022/07/04 04:37:12;;;;;;;1999.90;999.90;;;12.30;99.90;;;;;;5069385;28;20052;-78
2022/07/04 04:39:39;;;;;;;1999.90;999.90;;;12.50;99.90;;;;;;5099733;28;20481;-78
2022/07/04 04:42:04;;;;;;;1999.90;999.90;;;12.70;99.90;;;;;;5085225;28;20524;-78
2022/07/04 04:44:30;;;;;;;1999.90;999.90;;;12.90;99.90;;;;;;5102643;28;20363;-78
2022/07/04 04:46:56;;;;;;;1999.90;999.90;;;13.00;99.90;;;;;;5052577;28;20052;-78
2022/07/04 04:49:21;;;;;;;1999.90;999.90;;;13.00;99.90;;;;;;5069851;28;20058;-78
2022/07/04 04:51:47;;;;;;;1999.90;999.90;;;13.00;99.90;;;;;;5076825;28;20085;-78
2022/07/04 04:54:13;;;;;;;1999.90;999.90;;;13.00;99.90;;;;;;5058506;28;20489;-78
2022/07/04 04:56:38;;;;;;;1999.90;999.90;;;13.00;99.90;;;;;;5086225;28;20488;-78
2022/07/04 04:59:04;;;;;;;1999.90;999.90;;;13.00;99.90;;;;;;5086409;28;20074;-78
2022/07/04 05:01:30;;;;;;;1999.90;999.90;;;13.10;99.90;;;;;;5087001;28;20075;-78
2022/07/04 05:03:55;;;;;;;1999.90;999.90;;;13.10;99.90;;;;;;5070604;28;20044;-78
2022/07/04 05:06:21;;;;;;;1999.90;999.90;;;13.20;99.90;;;;;;5054890;28;20048;-78
2022/07/04 05:08:48;;;;;;;1999.90;999.90;;;13.30;99.90;;;;;;5079382;28;20180;-78
2022/07/04 05:11:13;;;;;;;1999.90;999.90;;;13.30;99.90;;;;;;5081067;28;20032;-78
2022/07/04 05:13:39;;;;;;;1999.90;999.90;;;13.60;99.90;;;;;;5060772;28;20475;-79
2022/07/04 05:16:05;;;;;;;1999.90;999.90;;;13.80;99.90;;;;;;5074996;28;20050;-78
2022/07/04 05:18:31;;;;;;;1999.90;999.90;;;14.00;99.90;;;;;;5073312;28;20043;-79
2022/07/04 05:20:58;;;;;;;1999.90;999.90;;;14.40;99.90;;;;;;5081679;28;20046;-78
2022/07/04 05:23:24;;;;;;;1999.90;999.90;;;14.70;99.90;;;;;;5105661;27;20430;-79
2022/07/04 05:25:49;;;;;;;1999.90;999.90;;;15.10;99.90;;;;;;5088799;28;20039;-78
2022/07/04 05:28:15;;;;;;;1999.90;999.90;;;15.20;99.90;;;;;;5063204;28;20036;-79
2022/07/04 05:30:42;;;;;;;1999.90;999.90;;;15.10;99.90;;;;;;5090057;28;20041;-79
2022/07/04 05:33:08;;;;;;;1999.90;999.90;;;15.00;99.90;;;;;;5072141;28;20127;-79
2022/07/04 05:35:34;;;;;;;1999.90;999.90;;;15.00;99.90;;;;;;5079926;28;20112;-79
2022/07/04 05:37:59;;;;;;;1999.90;999.90;;;15.00;99.90;;;;;;5073107;28;20363;-78
2022/07/04 05:40:25;;;;;;;1999.90;999.90;;;15.00;99.90;;;;;;5056037;28;20083;-78
2022/07/04 05:42:51;;;;;;;1999.90;999.90;;;15.00;99.90;;;;;;5064905;28;20051;-79
2022/07/04 05:45:16;;;;;;;1999.90;999.90;;;15.10;99.90;;;;;;5068587;28;20493;-79
2022/07/04 05:47:44;;;;;;;1999.90;999.90;;;15.10;99.90;;;;;;5074045;28;20493;-78
2022/07/04 05:50:10;;;;;;;1999.90;999.90;;;15.30;99.90;;;;;;5093650;28;20122;-78
2022/07/04 05:52:36;;;;;;;1999.90;999.90;;;15.50;99.90;;;;;;5060676;28;20600;-78
2022/07/04 05:55:02;;;;;;;1999.90;999.90;;;15.70;99.90;;;;;;5062986;28;20040;-78
2022/07/04 05:57:28;;;;;;;1999.90;999.90;;;15.80;99.90;;;;;;5066717;28;20052;-79
2022/07/04 05:59:53;;;;;;;1999.90;999.90;;;16.00;99.90;;;;;;5059037;28;20040;-78
2022/07/04 06:02:19;;;;;;;1999.90;999.90;;;16.10;99.90;;;;;;5074370;28;20126;-78
2022/07/04 06:04:45;;;;;;;1999.90;999.90;;;16.30;99.90;;;;;;5065749;28;20039;-78
2022/07/04 06:07:10;;;;;;;1999.90;999.90;;;16.50;99.90;;;;;;5081614;28;20043;-79
2022/07/04 06:09:36;;;;;;;1999.90;999.90;;;16.70;99.90;;;;;;5056133;28;20067;-79
2022/07/04 06:12:03;;;;;;;1999.90;999.90;;;17.40;99.90;;;;;;5084821;28;20032;-78
2022/07/04 06:14:29;;;;;;;1999.90;999.90;;;18.20;99.90;;;;;;5092799;28;20122;-78
2022/07/04 06:16:55;;;;;;;1999.90;999.90;;;19.00;99.90;;;;;;5098846;28;20122;-79
2022/07/04 06:19:20;;;;;;;1999.90;999.90;;;19.80;99.90;;;;;;5082941;28;20382;-78
2022/07/04 06:21:46;;;;;;;1999.90;999.90;;;20.40;99.90;;;;;;5104306;28;20047;-79
2022/07/04 06:24:12;;;;;;;1999.90;999.90;;;21.20;99.90;;;;;;5078655;28;20043;-79
2022/07/04 06:26:38;;;;;;;1999.90;999.90;;;21.70;99.90;;;;;;5042369;28;20040;-78
2022/07/04 06:29:03;;;;;;;1999.90;999.90;;;22.10;99.90;;;;;;5080897;28;20048;-79
2022/07/04 06:31:29;;;;;;;1999.90;999.90;;;22.50;99.90;;;;;;5070911;28;20044;-79
2022/07/04 06:36:39;;;;;;;1999.90;999.90;;;22.50;99.90;;;;;;5072292;28;20087;-78
2022/07/04 06:39:04;;;;;;;1999.90;999.90;;;22.50;99.90;;;;;;5108289;27;20075;-79
2022/07/04 06:41:30;;;;;;;1999.90;999.90;;;22.70;99.90;;;;;;5063407;28;20060;-79
2022/07/04 06:43:56;;;;;;;1999.90;999.90;;;22.60;99.90;;;;;;5079440;28;20048;-79
2022/07/04 06:46:21;;;;;;;1999.90;999.90;;;22.50;99.90;;;;;;5084743;28;20072;-79
2022/07/04 06:48:47;;;;;;;1999.90;999.90;;;22.60;99.90;;;;;;5087926;28;20040;-80
2022/07/04 06:51:13;;;;;;;1999.90;999.90;;;22.60;99.90;;;;;;5066980;28;20119;-79
2022/07/04 06:53:41;;;;;;;1999.90;999.90;;;22.70;99.90;;;;;;5064724;28;20093;-79
2022/07/04 06:56:07;;;;;;;1999.90;999.90;;;22.90;99.90;;;;;;5103419;28;20477;-79
2022/07/04 06:58:32;;;;;;;1999.90;999.90;;;23.20;99.90;;;;;;5065005;28;20044;-78
2022/07/04 07:00:58;;;;;;;1999.90;999.90;;;23.60;99.90;;;;;;5066996;28;20047;-78
2022/07/04 07:03:23;;;;;;;1999.90;999.90;;;24.00;99.90;;;;;;5066548;28;20655;-79
2022/07/04 07:05:49;;;;;;;1999.90;999.90;;;24.00;99.90;;;;;;5070172;28;20044;-78
2022/07/04 07:08:15;;;;;;;1999.90;999.90;;;24.20;99.90;;;;;;5069472;28;20028;-78
2022/07/04 07:10:40;;;;;;;1999.90;999.90;;;23.70;99.90;;;;;;5053351;28;20036;-78
2022/07/04 07:13:06;;;;;;;1999.90;999.90;;;23.40;99.90;;;;;;5070490;28;20493;-78
2022/07/04 07:15:35;;;;;;;1999.90;999.90;;;23.50;99.90;;;;;;5065931;28;20127;-78
2022/07/04 07:18:04;;;;;;;1999.90;999.90;;;23.20;99.90;;;;;;5069133;28;20382;-78
2022/07/04 07:20:30;;;;;;;1999.90;999.90;;;22.70;99.90;;;;;;5071574;28;20044;-78
2022/07/04 07:22:55;;;;;;;1999.90;999.90;;;23.00;99.90;;;;;;5081997;28;20075;-79
2022/07/04 07:25:21;;;;;;;1999.90;999.90;;;23.50;99.90;;;;;;5065009;28;20486;-78
2022/07/04 07:27:47;;;;;;;1999.90;999.90;;;23.10;99.90;;;;;;5061038;28;20035;-78
2022/07/04 07:30:13;;;;;;;1999.90;999.90;;;23.00;99.90;;;;;;5065395;28;20083;-78
2022/07/04 07:32:38;;;;;;;1999.90;999.90;;;23.10;99.90;;;;;;5069173;28;20038;-79
2022/07/04 07:35:04;;;;;;;1999.90;999.90;;;23.40;99.90;;;;;;5062000;28;20048;-78
2022/07/04 07:37:30;;;;;;;1999.90;999.90;;;23.50;99.90;;;;;;5086421;28;20452;-78
2022/07/04 07:39:56;;;;;;;1999.90;999.90;;;23.10;99.90;;;;;;5066022;28;20048;-78
2022/07/04 07:42:24;;;;;;;1999.90;999.90;;;22.40;99.90;;;;;;5066815;28;20040;-79
2022/07/04 07:44:49;;;;;;;1999.90;999.90;;;21.70;99.90;;;;;;5061873;28;20044;-78
2022/07/04 07:47:15;;;;;;;1999.90;999.90;;;21.10;99.90;;;;;;5068728;28;20109;-77
2022/07/04 07:49:44;;;;;;;1999.90;999.90;;;20.60;99.90;;;;;;5096788;28;20036;-78
2022/07/04 07:52:10;;;;;;;1999.90;999.90;;;20.10;99.90;;;;;;5064543;28;20040;-78
2022/07/04 07:54:36;;;;;;;1999.90;999.90;;;19.80;99.90;;;;;;5068410;28;20090;-77
2022/07/04 07:57:02;;;;;;;1999.90;999.90;;;19.50;99.90;;;;;;5067429;28;20040;-77
2022/07/04 07:59:28;;;;;;;1999.90;999.90;;;19.20;99.90;;;;;;5067113;28;20108;-77
2022/07/04 08:01:54;;;;;;;1999.90;999.90;;;19.00;99.90;;;;;;5070111;28;20036;-77
2022/07/04 08:04:34;;;;;;;1999.90;999.90;;;18.80;99.90;;;;;;5072564;28;20515;-76
2022/07/04 08:07:05;;;;;;;1999.90;999.90;;;18.70;99.90;;;;;;5098730;28;20052;-78
2022/07/04 08:09:31;;;;;;;1999.90;999.90;;;18.50;99.90;;;;;;5056633;28;20389;-77
2022/07/04 08:11:58;;;;;;;1999.90;999.90;;;18.40;99.90;;;;;;5073867;28;20595;-77
2022/07/04 08:14:24;;;;;;;1999.90;999.90;;;18.30;99.90;;;;;;5074106;28;20050;-76
2022/07/04 08:16:50;;;;;;;1999.90;999.90;;;18.20;99.90;;;;;;5045613;28;20396;-78
2022/07/04 08:19:15;;;;;;;1999.90;999.90;;;18.20;99.90;;;;;;5056175;28;20047;-77
2022/07/04 08:21:41;;;;;;;1999.90;999.90;;;18.20;99.90;;;;;;5081479;28;20523;-77
2022/07/04 08:24:07;;;;;;;1999.90;999.90;;;18.20;99.90;;;;;;5099074;28;20082;-77
2022/07/04 08:26:33;;;;;;;1999.90;999.90;;;18.20;99.90;;;;;;5062424;28;20071;-78
2022/07/04 08:28:59;;;;;;;1999.90;999.90;;;18.30;99.90;;;;;;5060123;28;20032;-77
2022/07/04 08:31:28;;;;;;;1999.90;999.90;;;18.30;99.90;;;;;;5065499;28;20047;-78
2022/07/04 08:33:54;;;;;;;1999.90;999.90;;;18.40;99.90;;;;;;5100929;28;20123;-77
2022/07/04 08:36:19;;;;;;;1999.90;999.90;;;18.40;99.90;;;;;;5049365;28;20131;-78
2022/07/04 08:38:45;;;;;;;1999.90;999.90;;;18.50;99.90;;;;;;5086626;28;20044;-77
2022/07/04 08:41:14;;;;;;;1999.90;999.90;;;18.60;99.90;;;;;;5061107;28;20518;-78
2022/07/04 08:43:41;;;;;;;1999.90;999.90;;;19.40;99.90;;;;;;5072099;28;20039;-78
2022/07/04 08:46:10;;;;;;;1999.90;999.90;;;20.40;99.90;;;;;;5079279;28;20386;-78
2022/07/04 08:48:41;;;;;;;1999.90;999.90;;;21.50;99.90;;;;;;5113858;27;20038;-78
2022/07/04 08:51:15;;;;;;;1999.90;999.90;;;22.20;99.90;;;;;;5070758;28;20040;-78
2022/07/04 08:53:50;;;;;;;1999.90;999.90;;;22.90;99.90;;;;;;5055525;28;20393;-78
2022/07/04 08:59:03;;;;;;;1999.90;999.90;;;23.40;99.90;;;;;;5070751;28;20071;-77
2022/07/04 09:01:29;;;;;;;1999.90;999.90;;;23.40;99.90;;;;;;5070395;28;20130;-78
2022/07/04 09:03:56;;;;;;;1999.90;999.90;;;23.00;99.90;;;;;;5073630;28;20071;-78
2022/07/04 09:06:23;;;;;;;1999.90;999.90;;;22.30;99.90;;;;;;5056861;28;20047;-77
2022/07/04 09:08:49;;;;;;;1999.90;999.90;;;21.80;99.90;;;;;;5057078;28;20040;-78
2022/07/04 09:11:14;;;;;;;1999.90;999.90;;;21.50;99.90;;;;;;5066429;28;20190;-78
2022/07/04 09:13:40;;;;;;;1999.90;999.90;;;21.70;99.90;;;;;;5098271;28;20028;-77
2022/07/04 09:16:06;;;;;;;1999.90;999.90;;;22.40;99.90;;;;;;5085539;28;20044;-78
2022/07/04 09:18:34;;;;;;;1999.90;999.90;;;23.10;99.90;;;;;;5087971;28;20406;-78
2022/07/04 09:21:06;;;;;;;1999.90;999.90;;;23.30;99.90;;;;;;5068871;28;20500;-77
2022/07/04 09:23:38;;;;;;;1999.90;999.90;;;22.90;99.90;;;;;;5051793;28;20472;-78
2022/07/04 09:26:20;;;;;;;;;;;22.40;99.90;;;;;;5097206;28;20186;-77
2022/07/04 09:28:56;;;;;;;1999.90;999.90;;;21.90;99.90;;;;;;5068092;28;20381;-77
2022/07/04 09:31:31;;;;;;;1999.90;999.90;;;21.50;99.90;;;;;;5067678;28;20094;-77
2022/07/04 09:34:05;;;;;;;1999.90;999.90;;;21.40;99.90;;;;;;5068264;28;20422;-77
2022/07/04 09:36:43;;;;;;;1999.90;999.90;;;21.20;99.90;;;;;;5065038;28;20052;-77
2022/07/04 09:39:18;;;;;;;1999.90;999.90;;;21.10;99.90;;;;;;5100742;27;20498;-77
2022/07/04 09:41:55;;;;;;;1999.90;999.90;;;21.20;99.90;;;;;;5061494;28;20059;-76
2022/07/04 09:44:22;;;;;;;1999.90;999.90;;;21.60;99.90;;;;;;5059008;28;20044;-77
2022/07/04 09:46:48;;;;;;;1999.90;999.90;;;22.20;99.90;;;;;;5050438;28;20067;-77
2022/07/04 09:49:13;;;;;;;1999.90;999.90;;;22.70;99.90;;;;;;5101806;27;20140;-77
2022/07/04 09:51:46;;;;;;;1999.90;999.90;;;22.60;96.70;;;;;;5065803;28;20119;-77
2022/07/04 09:54:27;;;;;;;1999.90;999.90;;;22.70;98.90;;;;;;5070343;28;20173;-76
2022/07/04 09:57:00;;;;;;;1999.90;999.90;;;22.60;98.30;;;;;;5077613;28;20088;-77
2022/07/04 09:59:27;;;;;;;1999.90;999.90;;;22.50;99.90;;;;;;5076190;28;20047;-76
2022/07/04 10:02:09;;;;;;;1999.90;999.90;;;22.70;96.70;;;;;;5073407;28;20555;-77
2022/07/04 10:05:07;;;;;;;1999.90;999.90;;;23.00;95.80;;;;;;5059491;28;20044;-77
2022/07/04 10:07:43;;;;;;;1999.90;999.90;;;23.40;98.00;;;;;;5075102;28;20093;-79
2022/07/04 10:10:28;;;;;;;1999.90;999.90;;;23.60;96.40;;;;;;5059872;28;20076;-78
2022/07/04 10:12:57;;;;;;;1999.90;999.90;;;23.70;95.30;;;;;;5076521;28;20036;-77
2022/07/04 10:15:24;;;;;;;1999.90;999.90;;;23.80;95.10;;;;;;5059670;28;20493;-77
2022/07/04 10:17:49;;;;;;;1999.90;999.90;;;24.00;94.00;;;;;;5059580;28;20040;-78
2022/07/04 10:20:15;;;;;;;1999.90;999.90;;;24.00;95.10;;;;;;5081525;28;20104;-78
2022/07/04 10:22:41;;;;;;;1999.90;999.90;;;24.00;94.00;;;;;;5073893;28;20519;-78
2022/07/04 10:25:08;;;;;;;1999.90;999.90;;;23.90;93.60;;;;;;5072815;28;20044;-77
2022/07/04 10:27:35;;;;;;;1999.90;999.90;;;24.00;94.90;;;;;;5085525;28;20469;-77
2022/07/04 10:30:04;;;;;;;1999.90;999.90;;;23.60;91.70;;;;;;5063088;28;20072;-77
2022/07/04 10:32:30;;;;;;;1999.90;999.90;;;22.90;92.00;;;;;;5066466;28;20455;-78
2022/07/04 10:34:56;;;;;;;1999.90;999.90;;;22.30;94.10;;;;;;5104024;27;20036;-78
2022/07/04 10:37:22;;;;;;;1999.90;999.90;;;21.90;94.90;;;;;;5106278;27;20043;-78
2022/07/04 10:39:48;;;;;;;1999.90;999.90;;;21.90;95.60;;;;;;5086562;28;20060;-77
2022/07/04 10:42:25;;;;;;;1999.90;999.90;;;22.20;97.10;;;;;;5077691;28;20047;-77
2022/07/04 10:44:51;;;;;;;1999.90;999.90;;;22.60;94.90;;;;;;5066081;28;20047;-77
2022/07/04 10:47:27;;;;;;;1999.90;999.90;;;22.60;93.90;;;;;;5072630;28;20040;-78
2022/07/04 10:49:55;;;;;;;1999.90;999.90;;;22.40;94.80;;;;;;5085491;28;20046;-77
2022/07/04 10:52:21;;;;;;;1999.90;999.90;;;22.50;93.90;;;;;;5070076;28;20490;-77
2022/07/04 10:54:47;;;;;;;1999.90;999.90;;;22.80;93.00;;;;;;5086894;28;20047;-76
2022/07/04 10:57:17;;;;;;;1999.90;999.90;;;23.10;93.90;;;;;;5058365;28;20469;-76
2022/07/04 11:00:04;;;;;;;1999.90;999.90;;;23.10;90.90;;;;;;5088422;28;20081;-74
2022/07/04 11:02:32;;;;;;;1999.90;999.90;;;22.70;93.00;;;;;;5089289;28;20116;-76
2022/07/04 11:04:57;;;;;;;1999.90;999.90;;;22.30;88.00;;;;;;5066143;28;20032;-76
2022/07/04 11:07:43;;;;;;;1999.90;999.90;;;22.40;92.80;;;;;;5072373;28;20093;-76
2022/07/04 11:12:59;;;;;;;1999.90;999.90;;;22.60;92.00;;;;;;5073321;28;20035;-75
2022/07/04 11:15:24;;;;;;;1999.90;999.90;;;22.40;93.00;;;;;;5060751;28;20110;-76
2022/07/04 11:17:51;;;;;;;1999.90;999.90;;;22.10;90.70;;;;;;5101784;27;20127;-74
2022/07/04 11:20:22;;;;;;;1999.90;999.90;;;22.10;93.60;;;;;;5073005;28;20135;-76
2022/07/04 11:22:47;;;;;;;1999.90;999.90;;;22.30;91.80;;;;;;5069698;28;20386;-75
2022/07/04 11:25:13;;;;;;;1999.90;999.90;;;22.60;89.10;;;;;;5085983;28;20053;-76
2022/07/04 11:27:40;;;;;;;1999.90;999.90;;;22.80;90.40;;;;;;5076732;28;20032;-76
2022/07/04 11:30:06;;;;;;;1999.90;999.90;;;22.90;88.20;;;;;;5096512;28;20526;-75
2022/07/04 11:32:33;;;;;;;1999.90;999.90;;;22.80;90.80;;;;;;5065868;28;20499;-76
2022/07/04 11:34:59;;;;;;;1999.90;999.90;;;22.90;92.30;;;;;;5045155;28;20119;-76
2022/07/04 11:37:25;;;;;;;1999.90;999.90;;;22.90;86.60;;;;;;5051364;28;20039;-77
2022/07/04 11:39:53;;;;;;;1999.90;999.90;;;22.50;84.30;;;;;;5077870;28;20051;-77
2022/07/04 11:45:05;;;;;;;1999.90;999.90;;;22.60;88.60;;;;;;5071245;28;20075;-77
2022/07/04 11:47:37;;;;;;;1999.90;999.90;;;22.90;86.70;;;;;;5068312;28;20032;-77
2022/07/04 11:50:06;;;;;;;1999.90;999.90;;;22.90;84.20;;;;;;5066718;28;20048;-76
2022/07/04 11:52:46;;;;;;;1999.90;999.90;;;23.00;86.90;;;;;;5085882;28;20076;-76
2022/07/04 11:55:16;;;;;;;1999.90;999.90;;;23.10;89.10;;;;;;5105673;28;20493;-78
2022/07/04 11:57:52;;;;;;;1999.90;999.90;;;22.90;85.50;;;;;;5070211;28;20043;-76
2022/07/04 12:00:26;;;;;;;1999.90;999.90;;;22.50;86.70;;;;;;5087910;28;20071;-76
2022/07/04 12:02:52;;;;;;;1999.90;999.90;;;22.50;87.60;;;;;;5074830;28;20059;-76
2022/07/04 12:05:18;;;;;;;1999.90;999.90;;;22.70;86.10;;;;;;5086168;28;20414;-76
2022/07/04 12:07:47;;;;;;;1999.90;999.90;;;23.00;86.10;;;;;;5071797;28;20035;-76
2022/07/04 12:10:18;;;;;;;1999.90;999.90;;;23.20;85.00;;;;;;5056274;28;20472;-74
2022/07/04 12:13:06;;;;;;;1999.90;999.90;;;23.10;84.30;;;;;;5054801;28;20036;-77